Airfield :
LOGIN :

Register | Disclaimer

   EN    FR    IT 

 










Legend :    VFR   Marginal VFR   IFR   Intensive IFR   Very Intensive IFR
Visi :
Ceiling :
>= 8 km
>= 3000ft
5 to 8 km
1000 to 3000 ft
1500m to 5 km
500 to 1000 ft
800 to 1500m
200 to 500 ft
< 800m
< 200 ft
Symbols :   Thunderstorms  Fog  Heavy snow  Heavy precipitations  Wind > 20 kt
SIGMETs :     Misc.  Thunderstorms  Icing  Turbulence  Mountain Waves  Volcanic Ashes







- Airport Elevation : 989 ft
- IATA code : TRN


LIMF - Torino Caselle

CURRENT METAR :
  • 280320Z 01005KT CAVOK 18/18 Q1003

EXPIRED METARs :
  • 280250Z 34004KT 9999 BKN020 18/18 Q1003 RETSRA
  • 280220Z 05004KT 350V080 6000 TSRA BKN015CB BKN050 19/18 Q1003
  • 280150Z VRB05KT 2000 TSRA BKN010CB BKN020 19/19 Q1005
  • 280120Z VRB02KT 9999 BKN030 20/19 Q1005
  • 280050Z VRB02KT 9999 BKN030 20/19 Q1005

TAF TAF LIMF
Valid from the 28 at 00:00 until the 29 at 00:00 UTC


272300Z 2800/2824 VRB05KT 9999 BKN050
TEMPO 2800/2820 VRB15G25KT 3000 TSRA BKN010CB
TEMPO 2820/2824 3000 BR
No reported NOTAMs for that airfield.
1 SIGMET reported for the Milano FIR (LIMM) :
 
Embedded thunderstorms
LIMM SIGMET 2 VALID 280250/280650 LIMM- LIMM MILANO FIR EMBD TS OBS NW OF LINE N4336 E00808 - N4541 E01325 TOP FL400 MOV NE NC=



MET'MAP, your aeronautical weather chart ! - Copyright ORBIFLY December 2007 - Disclaimer

ORBIFLY MET'MAP TEAM :

Programming & Development : Alexandra Zaïnal
Concept & Development : Baudouin d'Aumeries
Co-Development & Prog : Marc-Olivier Méhu
Technical & hardware support : Manuel Goepfert

Contact : metmap@orbifly.com




SOURCES & CREDITS :

   NOAA